Date,TemperatureHighF,TemperatureAvgF,TemperatureLowF,DewpointHighF,DewpointAvgF,DewpointLowF,HumidityHigh,HumidityAvg,HumidityLow,PressureMaxIn,PressureMinIn,WindSpeedMaxMPH,WindSpeedAvgMPH,GustSpeedMaxMPH,PrecipitationSumIn
2013-1-1,31,23,17,24,16,7,92,73,50,0.00,40.00,22,10,37,0.00
2013-1-2,27,21,9,19,11,4,84,64,42,0.00,40.00,30,16,43,0.00
2013-1-3,34,20,9,11,5,-1,80,53,35,0.00,40.00,14,9,19,0.00
2013-1-4,42,28,20,13,6,1,55,40,27,0.00,40.00,16,8,20,0.00
2013-1-5,37,27,20,18,12,8,61,53,42,0.00,40.00,12,6,20,0.00
2013-1-6,40,32,22,17,12,5,54,43,32,0.00,40.00,24,11,37,0.00
2013-1-7,39,30,22,18,14,8,59,50,35,0.00,40.00,12,7,17,0.00
2013-1-8,42,32,24,19,17,13,73,53,38,0.00,40.00,22,8,31,0.00
2013-1-9,48,40,25,24,19,13,60,43,33,0.00,40.00,35,19,54,0.00
2013-1-10,51,41,25,27,18,14,96,43,27,0.00,40.00,30,19,47,0.00
2013-1-11,25,10,2,24,3,-6,94,76,62,0.00,40.00,31,23,51,0.00
2013-1-12,11,5,2,2,-2,-6,76,71,65,0.00,40.00,27,9,47,0.00
2013-1-13,14,7,2,3,-2,-6,78,67,56,0.00,40.00,12,6,19,0.00
2013-1-14,16,8,2,-1,-6,-9,62,52,45,0.00,40.00,16,10,22,0.00
2013-1-15,36,24,9,27,14,-7,85,66,47,0.00,40.00,25,11,34,0.00
2013-1-16,42,34,27,20,16,14,64,49,36,0.00,40.00,18,7,26,0.00
2013-1-17,42,32,23,21,15,10,59,50,40,0.00,40.00,15,11,22,0.00
2013-1-18,49,39,31,23,15,10,45,37,27,0.00,40.00,14,9,21,0.00
2013-1-19,41,35,27,22,16,10,79,47,30,0.00,40.00,13,7,19,0.00
2013-1-20,32,23,18,18,14,11,83,68,43,0.00,40.00,22,9,32,0.00
2013-1-21,38,25,14,18,14,10,87,66,41,0.00,40.00,10,3,16,0.00
2013-1-22,46,35,28,14,9,5,54,36,22,0.00,40.00,7,4,15,0.00
2013-1-23,34,31,27,19,12,5,64,47,29,0.00,40.00,20,7,26,0.00
2013-1-24,49,38,27,22,17,13,69,43,26,0.00,40.00,20,7,25,0.00
2013-1-25,53,37,26,25,20,16,73,53,26,0.00,40.00,14,7,20,0.00
2013-1-26,55,40,29,27,22,19,68,50,27,0.00,40.00,15,7,22,0.00
2013-1-27,40,33,28,32,28,24,98,83,59,0.00,40.00,19,11,26,0.00
2013-1-28,30,26,19,27,24,16,98,91,75,0.00,40.00,9,6,14,0.00
2013-1-29,25,16,3,20,10,-3,89,77,65,0.00,40.00,25,11,38,0.00
2013-1-30,30,18,1,24,13,-4,94,80,68,0.00,40.00,23,10,34,0.00
2013-1-31,30,16,2,22,9,-4,77,73,58,0.00,40.00,10,6,16,0.00
2013-2-1,37,32,29,32,28,22,96,85,71,0.00,40.00,18,8,27,0.06
2013-2-2,39,32,24,28,21,17,84,65,47,0.00,40.00,16,7,30,0.01
2013-2-3,45,33,26,22,18,16,69,54,34,0.00,40.00,13,8,21,0.00
2013-2-4,46,35,26,21,18,15,66,50,33,0.00,40.00,13,5,22,0.00
2013-2-5,45,37,30,27,24,21,74,59,46,0.00,40.00,14,9,22,0.00
2013-2-6,41,35,31,24,21,18,66,57,43,0.00,40.00,15,6,21,0.00
2013-2-7,43,34,26,23,18,15,72,53,33,0.00,40.00,18,11,25,0.00
2013-2-8,42,34,26,21,17,13,72,50,34,0.00,40.00,16,6,25,0.00
2013-2-9,33,30,27,26,22,19,94,73,58,0.00,40.00,15,8,20,0.00
2013-2-10,27,23,15,26,16,8,94,75,51,0.00,40.00,27,19,44,0.00
2013-2-11,36,22,13,10,6,-2,79,55,22,0.00,40.00,12,7,16,0.00
2013-2-12,38,27,17,19,10,3,59,49,35,0.00,40.00,13,8,22,0.00
2013-2-13,41,32,27,32,21,11,99,67,39,0.00,40.00,34,12,54,0.00
2013-2-14,29,23,16,28,16,9,98,75,55,0.00,40.00,26,14,36,0.00
2013-2-15,33,26,19,21,19,9,93,76,53,0.00,40.00,9,5,17,0.01
2013-2-16,52,38,26,25,21,17,68,52,34,0.00,40.00,12,6,16,0.01
2013-2-17,36,33,28,30,22,17,91,66,47,0.00,40.00,27,16,40,0.01
2013-2-18,29,24,14,24,18,11,90,77,61,0.00,40.00,19,10,34,0.00
2013-2-19,33,24,12,20,15,8,87,69,57,0.00,40.00,36,24,49,0.00
2013-2-20,38,26,18,21,17,11,85,68,47,0.00,40.00,31,12,42,0.00
2013-2-21,27,23,17,19,17,14,88,79,64,0.00,40.00,11,6,15,0.00
2013-2-22,37,26,16,19,12,8,88,59,32,0.00,40.00,12,6,23,0.00
2013-2-23,42,31,24,31,18,8,100,62,38,0.00,40.00,22,11,33,0.00
2013-2-24,31,26,19,26,21,13,96,80,59,0.00,40.00,23,14,34,0.00
2013-2-25,40,28,16,20,14,7,77,58,40,0.00,40.00,13,10,19,0.00
2013-2-26,34,29,23,28,22,16,97,74,53,0.00,40.00,24,13,32,0.00
2013-2-27,40,28,18,20,16,12,93,64,33,0.00,40.00,7,4,12,0.00
2013-2-28,38,31,23,21,16,11,68,54,40,0.00,40.00,15,6,28,0.00
2013-3-1,49,35,25,31,24,17,73,64,48,0.00,40.00,10,5,15,0.00
2013-3-2,57,45,35,30,26,24,65,50,33,0.00,40.00,11,6,16,0.00
2013-3-3,57,40,28,32,28,21,93,64,30,0.00,40.00,41,8,63,0.00
2013-3-4,29,20,14,21,11,7,81,67,50,0.00,40.00,39,25,61,0.00
2013-3-5,36,22,7,18,10,2,81,62,41,0.00,40.00,20,8,28,0.00
2013-3-6,60,37,21,27,17,8,64,46,22,0.00,40.00,20,12,30,0.00
2013-3-7,48,38,31,27,22,18,73,53,32,0.00,40.00,15,6,21,0.00
2013-3-8,48,37,31,30,21,-100,85,63,49,0.00,40.00,20,10,29,0.00
2013-3-9,38,33,26,30,24,14,95,74,40,0.00,40.00,31,16,0,0.00
2013-3-10,48,36,21,22,18,15,83,51,29,0.00,40.00,11,6,0,0.00
2013-3-11,41,35,26,33,25,20,97,69,44,0.00,40.00,26,17,0,0.00
2013-3-12,42,32,21,23,17,13,93,59,31,0.00,40.00,22,9,0,0.00
2013-3-13,64,50,37,26,25,22,59,39,21,0.00,40.00,18,8,0,0.00
2013-3-14,66,53,41,29,26,22,60,37,20,0.00,40.00,16,6,0,0.00
2013-3-15,63,51,40,30,26,18,61,40,20,0.00,40.00,24,11,0,0.00
2013-3-16,48,40,33,35,31,26,96,70,42,0.00,40.00,22,9,0,0.01
2013-3-17,42,32,21,33,27,18,95,81,51,0.00,40.00,31,22,0,0.01
2013-3-18,36,26,16,19,14,8,92,64,32,0.00,40.00,18,10,0,0.00
2013-3-19,32,28,20,24,19,13,87,70,46,0.00,40.00,15,7,0,0.00
2013-3-20,56,36,20,21,15,10,79,48,16,0.00,40.00,29,15,0,0.00
2013-3-21,37,32,25,33,26,19,100,82,51,0.00,40.00,27,10,40,0.00
2013-3-22,32,25,20,26,22,18,99,86,68,0.00,40.00,18,8,27,0.00
2013-3-23,26,20,14,18,13,10,97,77,56,0.00,40.00,17,9,26,0.00
2013-3-24,20,16,9,13,11,7,95,83,70,0.00,40.00,22,10,29,0.00
2013-3-25,38,23,8,18,11,6,93,65,29,0.00,40.00,15,8,19,0.00
2013-3-26,50,36,23,19,14,8,71,44,18,0.00,40.00,15,6,19,0.00
2013-3-27,59,42,30,20,16,14,56,39,21,0.00,40.00,9,6,16,0.00
2013-3-28,62,55,43,24,22,20,45,28,21,0.00,40.00,10,5,14,0.00
2013-3-29,62,49,40,38,28,23,89,45,27,0.00,40.00,19,10,32,0.00
2013-3-30,51,44,35,39,32,21,93,66,31,0.00,40.00,29,10,45,0.00
2013-3-31,56,42,32,28,25,20,79,54,29,0.00,40.00,30,15,43,0.00
2013-4-1,54,40,28,28,21,11,87,54,20,0.00,40.00,11,7,21,0.00
2013-4-2,62,46,30,23,17,10,65,36,14,0.00,40.00,25,10,35,0.00
2013-4-3,63,51,39,32,24,13,71,37,22,0.00,40.00,25,14,35,0.00
2013-4-4,66,51,34,34,30,27,81,48,25,0.00,40.00,21,9,31,0.00
2013-4-5,68,51,41,43,32,25,96,53,25,0.00,40.00,32,11,48,0.36
2013-4-6,60,49,41,41,33,29,93,58,33,0.00,40.00,16,6,28,0.36
2013-4-7,59,47,38,41,36,27,94,69,30,0.00,40.00,17,7,36,0.01
2013-4-8,43,26,16,38,24,14,99,94,84,0.00,40.00,27,20,38,0.00
2013-4-9,19,15,11,14,10,7,93,82,61,0.00,40.00,20,14,33,0.00
2013-4-10,29,22,14,20,15,11,94,77,63,0.00,40.00,10,6,15,0.01
2013-4-11,45,34,20,38,28,15,100,77,63,0.00,40.00,23,9,34,0.01
2013-4-12,42,36,32,34,28,21,100,78,43,0.00,40.00,30,14,45,0.00
2013-4-13,58,41,32,36,30,26,100,71,29,0.00,40.00,38,18,52,0.11
2013-4-14,33,30,22,33,25,18,100,83,69,0.00,40.00,36,26,53,0.12
2013-4-15,29,23,17,23,18,16,95,81,60,0.00,40.00,14,10,23,0.00
2013-4-16,29,24,22,23,22,19,97,89,76,0.00,40.00,11,6,17,0.00
2013-4-17,28,24,21,22,21,19,96,87,72,0.00,40.00,17,11,26,0.00
2013-4-18,42,30,17,27,20,16,99,70,38,0.00,40.00,19,8,32,0.00
2013-4-19,50,41,33,34,28,25,87,62,37,0.00,40.00,15,6,23,0.00
2013-4-20,57,44,35,40,34,28,92,71,35,0.00,40.00,17,8,36,0.00
2013-4-21,44,36,30,39,34,30,100,91,79,0.00,40.00,15,8,22,0.00
2013-4-22,30,27,19,30,22,16,100,85,59,0.00,40.00,22,12,30,0.00
2013-4-23,39,28,14,21,17,12,97,66,43,0.00,40.00,11,6,19,0.02
2013-4-24,44,36,30,31,27,21,98,73,49,0.00,40.00,22,12,32,0.01
2013-4-25,64,52,37,27,21,14,67,33,15,0.00,40.00,17,9,27,0.00
2013-4-26,72,56,41,29,25,21,55,32,16,0.00,40.00,7,4,18,0.00
2013-4-27,78,62,46,34,27,22,52,30,13,0.00,40.00,13,6,24,0.00
2013-4-28,59,53,43,42,36,27,87,55,32,0.00,40.00,19,10,29,0.00
2013-4-29,68,53,40,41,37,29,93,59,26,0.00,40.00,28,14,43,0.07
2013-4-30,45,40,32,38,26,19,93,58,38,0.00,40.00,22,12,36,0.10
2013-5-1,49,36,27,25,19,10,84,54,24,0.00,40.00,12,5,21,0.00
2013-5-2,57,44,31,24,17,12,66,36,17,0.00,40.00,10,5,22,0.00
2013-5-3,69,52,37,28,20,15,48,31,14,0.00,40.00,19,9,32,0.00
2013-5-4,62,52,44,34,26,22,52,38,25,0.00,40.00,14,7,22,0.00
2013-5-5,66,53,38,27,24,21,54,34,19,0.00,40.00,10,5,16,0.00
2013-5-6,71,57,41,29,25,22,56,32,16,0.00,40.00,12,8,24,0.00
2013-5-7,76,62,48,34,29,23,50,31,14,0.00,40.00,18,9,23,0.00
2013-5-8,70,60,50,39,34,32,56,40,25,0.00,40.00,18,10,29,0.00
2013-5-9,70,58,46,45,38,33,74,50,27,0.00,40.00,18,8,24,0.00
2013-5-10,71,58,47,44,35,-100,84,48,21,0.00,40.00,28,11,60,0.01
2013-5-11,70,57,34,31,27,22,75,35,19,0.00,40.00,10,4,19,0.01
2013-5-12,79,67,51,39,34,31,53,32,18,0.00,40.00,17,8,32,0.00
2013-5-13,89,75,60,42,34,25,43,25,11,0.00,40.00,12,6,29,0.00
2013-5-14,79,69,58,49,40,29,61,37,22,0.00,40.00,17,9,28,0.00
2013-5-15,78,64,48,46,38,31,65,40,22,0.00,40.00,21,8,32,0.00
2013-5-16,74,56,51,55,26,-100,98,63,32,0.00,40.00,25,9,41,0.16
2013-5-17,72,59,52,56,47,-100,100,82,51,0.00,40.00,27,7,169,0.17
2013-5-18,70,56,51,54,51,49,100,87,55,0.00,40.00,16,8,23,0.01
2013-5-19,55,52,49,51,49,46,96,90,80,0.00,40.00,21,15,31,0.09
2013-5-20,50,46,44,47,44,42,98,93,86,0.00,40.00,35,27,57,0.26
2013-5-21,57,50,45,45,41,35,98,72,50,0.00,40.00,23,15,32,0.05
2013-5-22,61,51,42,48,45,41,95,78,61,0.00,40.00,24,9,38,0.00
2013-5-23,70,59,50,52,48,45,86,68,48,0.00,40.00,44,35,68,0.00
2013-5-24,84,71,59,68,56,50,82,60,31,0.00,40.00,42,16,62,0.00
2013-5-25,91,79,65,70,54,27,89,53,10,0.00,40.00,19,11,30,0.00
2013-5-26,80,71,59,74,62,49,100,77,36,0.00,40.00,19,10,46,1.44
2013-5-27,69,62,56,62,53,49,97,73,51,0.00,40.00,25,10,42,1.05
2013-5-28,84,73,64,67,57,45,91,61,28,0.00,40.00,17,9,34,0.09
2013-5-29,75,70,66,70,67,64,100,92,71,0.00,40.00,16,6,26,0.39
2013-5-30,76,71,66,75,70,65,100,96,93,0.00,40.00,36,26,56,1.60
2013-5-31,78,75,72,75,71,66,98,88,77,0.00,40.00,42,33,63,0.39
2013-6-1,83,76,66,73,65,57,98,72,44,0.00,40.00,27,14,47,0.11
2013-6-2,91,81,72,68,65,61,78,60,40,0.00,40.00,22,14,32,0.00
2013-7-29,73,69,65,50,50,48,58,51,41,0.00,40.00,12,7,19,0.00
2013-7-30,81,69,60,54,50,41,76,54,27,0.00,40.00,16,11,39,0.00
2013-7-31,85,78,66,53,46,38,64,33,19,0.00,40.00,11,8,20,0.01
2013-8-1,88,75,60,57,48,41,79,42,19,0.00,40.00,19,10,27,0.05
2013-8-2,70,62,56,59,54,52,86,77,58,0.00,40.00,21,11,29,0.05
2013-8-5,81,72,64,56,50,45,62,48,35,0.00,40.00,8,6,28,0.04
2013-8-21,87,77,68,51,45,41,48,34,22,0.00,40.00,16,8,23,0.00
2013-8-22,88,74,62,59,53,49,80,49,29,0.00,40.00,25,12,35,0.08
2013-8-23,93,79,66,58,51,41,76,42,17,0.00,40.00,19,10,39,0.01
2013-8-24,84,75,62,56,52,47,79,48,29,0.00,40.00,17,8,26,0.01
2013-8-25,91,76,61,57,49,40,75,45,18,0.00,40.00,20,7,31,0.00
2013-8-26,91,80,70,47,44,39,43,29,17,0.00,40.00,21,10,31,0.00
2013-8-27,85,75,68,48,46,44,48,36,25,0.00,40.00,11,6,16,0.00
2013-9-24,77,62,47,35,28,18,57,33,11,0.00,40.00,21,13,33,0.01
2013-9-25,65,56,44,47,37,27,100,53,24,0.00,40.00,19,12,31,0.05
2013-9-26,52,45,32,46,40,32,100,83,55,0.00,40.00,20,10,27,0.25
2013-9-27,39,35,32,37,34,32,100,99,93,0.00,40.00,11,5,21,0.48
2013-9-28,64,47,33,38,33,29,99,63,28,0.00,40.00,17,10,27,0.01
2013-9-29,68,58,49,38,34,29,62,42,24,0.00,40.00,23,14,40,0.01
2013-9-30,76,59,47,44,36,31,67,44,20,0.00,40.00,32,14,48,0.00
2013-12-26,43,36,30,26,20,14,63,53,41,0.00,40.00,15,8,19,0.00
2013-12-27,49,40,35,30,26,22,64,56,47,0.00,40.00,17,12,25,0.00
2013-12-28,41,22,3,29,14,1,94,73,46,0.00,40.00,26,13,37,0.00
2013-12-29,33,21,4,21,12,1,88,70,53,0.00,40.00,14,7,21,0.00
2013-12-30,39,32,26,30,24,18,97,73,51,0.00,40.00,30,12,43,0.00
2013-12-31,45,36,31,33,25,18,100,65,49,0.00,40.00,14,8,21,0.00
2014-1-1,31,27,19,31,26,17,100,95,83,0.00,40.00,17,8,25,0.00